Airfield :
LOGIN :

Register | Disclaimer

   EN    FR    IT 

 










Legend :    VFR   Marginal VFR   IFR   Intensive IFR   Very Intensive IFR
Visi :
Ceiling :
>= 8 km
>= 3000ft
5 to 8 km
1000 to 3000 ft
1500m to 5 km
500 to 1000 ft
800 to 1500m
200 to 500 ft
< 800m
< 200 ft
Symbols :   Thunderstorms  Fog  Heavy snow  Heavy precipitations  Wind > 20 kt
SIGMETs :     Misc.  Thunderstorms  Icing  Turbulence  Mountain Waves  Volcanic Ashes







- Airport Elevation : 129 ft
- IATA code : ZCN


ETHC - Celle

CURRENT METAR :
  • 231920Z 05008KT 8000 BKN018 07/03 Q1023 WHT

EXPIRED METARs :
  • 231820Z 05008KT 8000 BKN017 07/03 Q1022 WHT
  • 231720Z 06009KT 8000 BKN017 07/03 Q1021 WHT FCST CANCEL

TAF AMD TAF ETHC
Valid from the 23 at 15:00 until the 24 at 00:00 UTC


231659Z 2315/2324 07010KT 9999 NSW BKN015
TEMPO 2315/2317 07010KT 8000 NSW BKN013 CANCEL 1730
No reported NOTAMs for that airfield.



MET'MAP, your aeronautical weather chart ! - Copyright ORBIFLY December 2007 - Disclaimer

ORBIFLY MET'MAP TEAM :

Programming & Development : Alexandra Zaïnal
Concept & Development : Baudouin d'Aumeries
Co-Development & Prog : Marc-Olivier Méhu
Technical & hardware support : Manuel Goepfert

Contact : metmap@orbifly.com




SOURCES & CREDITS :

   NOAA